createdAt,value
2023-01-30T00:01:39.811Z,17.70
2023-01-30T00:04:06.539Z,20.00
2023-01-30T00:06:33.840Z,16.63
2023-01-30T00:09:00.601Z,18.30
2023-01-30T00:11:29.981Z,18.47
2023-01-30T00:13:56.924Z,22.67
2023-01-30T00:16:24.133Z,20.23
2023-01-30T00:18:50.861Z,19.47
2023-01-30T00:21:17.822Z,17.63
2023-01-30T00:23:44.948Z,19.17
2023-01-30T00:26:12.244Z,19.93
2023-01-30T00:28:39.771Z,19.73
2023-01-30T00:31:06.938Z,19.37
2023-01-30T00:33:33.823Z,20.67
2023-01-30T00:36:01.738Z,20.43
2023-01-30T00:38:28.841Z,22.07
2023-01-30T00:40:55.590Z,20.33
2023-01-30T00:43:40.683Z,21.17
2023-01-30T00:46:38.208Z,19.87
2023-01-30T00:49:04.859Z,20.20
2023-01-30T00:51:31.962Z,20.40
2023-01-30T00:53:59.171Z,22.10
2023-01-30T00:56:26.220Z,20.93
2023-01-30T00:58:52.989Z,23.77
2023-01-30T01:01:20.046Z,23.37
2023-01-30T01:03:46.853Z,23.27
2023-01-30T01:06:13.576Z,21.57
2023-01-30T01:08:40.900Z,20.23
2023-01-30T01:11:07.589Z,20.90
2023-01-30T01:13:34.686Z,22.63
2023-01-30T01:16:01.353Z,21.43
2023-01-30T01:18:28.246Z,22.00
2023-01-30T01:20:55.506Z,23.10
2023-01-30T01:23:22.173Z,23.17
2023-01-30T01:25:48.839Z,21.07
2023-01-30T01:28:15.841Z,22.37
2023-01-30T01:30:42.558Z,24.40
2023-01-30T01:33:09.618Z,25.13
2023-01-30T01:35:41.048Z,22.93
2023-01-30T01:38:08.134Z,21.37
2023-01-30T01:40:53.557Z,21.43
2023-01-30T01:43:23.058Z,23.37
2023-01-30T01:45:58.582Z,22.43
2023-01-30T01:48:51.550Z,21.33
2023-01-30T01:51:31.514Z,21.57
2023-01-30T01:54:12.005Z,23.83
2023-01-30T01:56:42.667Z,21.73
2023-01-30T01:59:30.102Z,19.87
2023-01-30T02:02:00.914Z,20.47
2023-01-30T02:05:01.943Z,23.87
2023-01-30T02:07:47.763Z,21.00
2023-01-30T02:10:19.233Z,19.33
2023-01-30T02:12:46.563Z,19.10
2023-01-30T02:15:13.637Z,24.37
2023-01-30T02:17:40.411Z,20.10
2023-01-30T02:20:25.853Z,22.13
2023-01-30T02:23:11.093Z,19.87
2023-01-30T02:26:05.190Z,21.13
2023-01-30T02:29:10.168Z,23.00
2023-01-30T02:32:07.664Z,20.73
2023-01-30T02:34:34.742Z,22.03
2023-01-30T02:37:39.897Z,23.37
2023-01-30T02:40:37.692Z,21.37
2023-01-30T02:43:19.633Z,22.30
2023-01-30T02:46:11.349Z,20.13
2023-01-30T02:48:56.909Z,21.87
2023-01-30T02:51:29.031Z,22.30
2023-01-30T02:53:56.324Z,20.73
2023-01-30T02:56:23.684Z,20.90
2023-01-30T02:59:05.966Z,23.43
2023-01-30T03:01:51.693Z,23.20
2023-01-30T03:05:16.191Z,22.30
2023-01-30T03:08:07.289Z,22.20
2023-01-30T03:10:41.678Z,22.23
2023-01-30T03:13:18.039Z,21.30
2023-01-30T03:16:09.776Z,23.53
2023-01-30T03:18:36.533Z,21.77
2023-01-30T03:21:06.554Z,22.00
2023-01-30T03:23:33.703Z,22.47
2023-01-30T03:26:02.817Z,22.07
2023-01-30T03:28:29.863Z,23.20
2023-01-30T03:30:57.091Z,23.17
2023-01-30T03:33:23.848Z,23.53
2023-01-30T03:35:52.149Z,22.30
2023-01-30T03:38:19.323Z,21.77
2023-01-30T03:40:46.029Z,21.27
2023-01-30T03:43:13.182Z,21.73
2023-01-30T03:45:40.276Z,23.50
2023-01-30T03:48:07.380Z,23.50
2023-01-30T03:50:34.756Z,21.20
2023-01-30T03:53:01.548Z,18.47
2023-01-30T03:55:28.675Z,20.03
2023-01-30T03:57:56.862Z,19.07
2023-01-30T04:00:24.103Z,19.47
2023-01-30T04:02:51.400Z,20.67
2023-01-30T04:05:19.100Z,21.93
2023-01-30T04:07:46.423Z,19.90
2023-01-30T04:10:15.478Z,20.33
2023-01-30T04:12:43.023Z,20.30
2023-01-30T04:15:10.459Z,19.30
2023-01-30T04:17:37.596Z,17.70
2023-01-30T04:20:04.799Z,17.17
2023-01-30T04:22:31.864Z,20.00
2023-01-30T04:24:58.950Z,17.23
2023-01-30T04:27:25.645Z,18.53
2023-01-30T04:29:52.681Z,15.67
2023-01-30T04:32:19.791Z,19.40
2023-01-30T04:34:46.434Z,16.60
2023-01-30T04:37:13.440Z,16.90
2023-01-30T04:39:40.524Z,17.97
2023-01-30T04:42:07.635Z,18.43
2023-01-30T04:44:34.716Z,15.57
2023-01-30T04:47:01.383Z,17.80
2023-01-30T04:49:28.534Z,17.67
2023-01-30T04:51:55.647Z,17.63
2023-01-30T04:54:22.783Z,19.60
2023-01-30T04:56:49.495Z,16.80
2023-01-30T04:59:16.578Z,19.40
2023-01-30T05:01:43.691Z,19.50
2023-01-30T05:04:10.454Z,19.50
2023-01-30T05:06:37.508Z,18.37
2023-01-30T05:09:05.073Z,19.70
2023-01-30T05:11:32.372Z,18.93
2023-01-30T05:13:59.413Z,18.63
2023-01-30T05:16:26.861Z,20.33
2023-01-30T05:18:53.955Z,20.60
2023-01-30T05:21:23.317Z,21.17
2023-01-30T05:23:51.793Z,22.07
2023-01-30T05:26:18.903Z,18.70
2023-01-30T05:28:54.912Z,22.17
2023-01-30T05:31:22.179Z,19.80
2023-01-30T05:33:50.432Z,22.10
2023-01-30T05:36:19.267Z,21.60
2023-01-30T05:38:46.509Z,24.00
2023-01-30T05:41:15.602Z,20.87
2023-01-30T05:43:43.013Z,22.07
2023-01-30T05:46:11.937Z,23.73
2023-01-30T05:48:39.102Z,21.07
2023-01-30T05:51:06.263Z,22.47
2023-01-30T05:53:37.194Z,24.83
2023-01-30T05:56:05.357Z,27.80
2023-01-30T05:58:33.184Z,23.50
2023-01-30T06:01:04.766Z,17.87
2023-01-30T06:03:32.225Z,21.27
2023-01-30T06:05:58.967Z,17.30
2023-01-30T06:08:26.095Z,17.63
2023-01-30T06:10:53.187Z,17.17
2023-01-30T06:13:20.310Z,22.33
2023-01-30T06:15:47.490Z,17.73
2023-01-30T06:18:14.621Z,18.17
2023-01-30T06:20:41.300Z,16.63
2023-01-30T06:23:08.373Z,18.37
2023-01-30T06:25:35.050Z,15.77
2023-01-30T06:28:01.879Z,17.47
2023-01-30T06:30:29.026Z,16.87
2023-01-30T06:32:55.806Z,17.83
2023-01-30T06:35:22.887Z,15.47
2023-01-30T06:37:49.685Z,16.67
2023-01-30T06:40:16.924Z,15.33
2023-01-30T06:42:47.465Z,17.00
2023-01-30T06:45:15.364Z,16.03
2023-01-30T06:47:47.249Z,13.37
2023-01-30T06:50:14.652Z,16.37
2023-01-30T06:52:46.513Z,15.77
2023-01-30T06:55:16.819Z,14.53
2023-01-30T06:57:44.611Z,16.13
2023-01-30T07:00:17.577Z,13.00
2023-01-30T07:02:45.043Z,14.50
2023-01-30T07:05:11.973Z,13.67
2023-01-30T07:07:39.390Z,15.43
2023-01-30T07:10:08.943Z,13.27
2023-01-30T07:12:36.790Z,17.77
2023-01-30T07:15:04.927Z,16.17
2023-01-30T07:17:31.988Z,18.53
2023-01-30T07:19:59.012Z,13.53
2023-01-30T07:22:25.935Z,14.07
2023-01-30T07:24:52.586Z,14.20
2023-01-30T07:27:19.712Z,15.40
2023-01-30T07:29:46.434Z,13.13
2023-01-30T07:32:16.112Z,15.27
2023-01-30T07:34:42.926Z,17.07
2023-01-30T07:37:10.041Z,15.90
2023-01-30T07:39:36.753Z,14.17
2023-01-30T07:42:04.042Z,14.37
2023-01-30T07:44:31.326Z,14.80
2023-01-30T07:46:58.438Z,14.57
2023-01-30T07:49:25.148Z,15.83
2023-01-30T07:51:52.493Z,15.13
2023-01-30T07:54:19.265Z,14.67
2023-01-30T07:56:45.945Z,14.27
2023-01-30T07:59:13.128Z,15.87
2023-01-30T08:01:39.762Z,17.20
2023-01-30T08:04:06.906Z,17.07
2023-01-30T08:06:38.934Z,13.37
2023-01-30T08:09:06.745Z,15.63
2023-01-30T08:11:33.896Z,17.20
2023-01-30T08:14:00.766Z,13.20
2023-01-30T08:16:27.994Z,17.47
2023-01-30T08:18:54.656Z,16.63
2023-01-30T08:21:21.749Z,12.93
2023-01-30T08:23:48.857Z,13.77
2023-01-30T08:26:16.010Z,13.93
2023-01-30T08:28:42.724Z,14.07
2023-01-30T08:31:11.945Z,17.20
2023-01-30T08:33:38.734Z,15.13
2023-01-30T08:36:05.866Z,13.37
2023-01-30T08:38:32.978Z,13.80
2023-01-30T08:41:01.131Z,15.83
2023-01-30T08:43:27.934Z,16.73
2023-01-30T08:45:55.161Z,13.87
2023-01-30T08:48:22.205Z,12.83
2023-01-30T08:50:55.347Z,14.73
2023-01-30T08:53:22.954Z,14.63
2023-01-30T08:55:53.652Z,16.60
2023-01-30T08:58:21.561Z,18.47
2023-01-30T09:00:49.449Z,19.23
2023-01-30T09:03:16.860Z,15.03
2023-01-30T09:05:43.976Z,12.80
2023-01-30T09:08:10.850Z,13.87
2023-01-30T09:10:37.590Z,15.43
2023-01-30T09:13:05.366Z,15.93
2023-01-30T09:15:33.990Z,18.50
2023-01-30T09:18:00.776Z,14.77
2023-01-30T09:20:27.978Z,17.43
2023-01-30T09:22:55.197Z,14.50
2023-01-30T09:25:21.927Z,12.63
2023-01-30T09:27:50.066Z,11.33
2023-01-30T09:30:17.621Z,15.13
2023-01-30T09:32:44.906Z,14.23
2023-01-30T09:35:11.701Z,17.43
2023-01-30T09:37:38.809Z,13.43
2023-01-30T09:40:06.449Z,16.60
2023-01-30T09:43:08.133Z,10.73
2023-01-30T09:45:35.194Z,11.67
2023-01-30T09:48:07.714Z,13.30
2023-01-30T09:51:13.999Z,11.37
2023-01-30T09:53:41.076Z,8.43
2023-01-30T09:56:08.307Z,14.13
2023-01-30T09:58:56.556Z,14.10
2023-01-30T10:01:44.205Z,15.67
2023-01-30T10:04:28.292Z,10.30
2023-01-30T10:07:17.103Z,11.50
2023-01-30T10:09:54.703Z,9.07
2023-01-30T10:12:24.417Z,11.27
2023-01-30T10:15:10.218Z,13.53
2023-01-30T10:17:53.529Z,14.13
2023-01-30T10:20:23.524Z,12.17
2023-01-30T10:22:59.303Z,13.07
2023-01-30T10:25:41.560Z,9.80
2023-01-30T10:28:32.894Z,15.70
2023-01-30T10:31:09.483Z,12.47
2023-01-30T10:34:01.394Z,12.20
2023-01-30T10:36:33.881Z,12.93
2023-01-30T10:39:02.359Z,12.47
2023-01-30T10:41:32.409Z,11.77
2023-01-30T10:44:09.777Z,9.70
2023-01-30T10:46:52.375Z,12.17
2023-01-30T10:49:24.001Z,13.57
2023-01-30T10:52:07.574Z,16.07
2023-01-30T10:54:34.608Z,13.13
2023-01-30T10:57:14.628Z,15.07
2023-01-30T10:59:50.601Z,13.37
2023-01-30T11:02:33.881Z,11.77
2023-01-30T11:05:03.721Z,14.20
2023-01-30T11:07:32.209Z,15.70
2023-01-30T11:10:00.098Z,11.97
2023-01-30T11:12:27.363Z,12.67
2023-01-30T11:14:59.192Z,14.97
2023-01-30T11:17:45.226Z,12.73
2023-01-30T11:20:17.119Z,11.87
2023-01-30T11:22:48.695Z,16.13
2023-01-30T11:25:21.041Z,10.30
2023-01-30T11:28:19.466Z,15.00
2023-01-30T11:30:58.725Z,12.80
2023-01-30T11:33:36.920Z,15.97
2023-01-30T11:36:08.756Z,11.47
2023-01-30T11:38:38.686Z,15.63
2023-01-30T11:41:07.553Z,13.60
2023-01-30T11:43:37.109Z,17.27
2023-01-30T11:46:05.712Z,18.50
2023-01-30T11:49:38.867Z,11.43
2023-01-30T11:51:23.795Z,13.07
2023-01-30T11:53:58.883Z,13.80
2023-01-30T11:56:32.399Z,16.60
2023-01-30T11:59:02.438Z,13.17
2023-01-30T12:01:31.456Z,16.27
2023-01-30T12:03:59.512Z,16.97
2023-01-30T12:06:31.818Z,23.63
2023-01-30T12:08:58.694Z,10.90
2023-01-30T12:11:31.618Z,15.43
2023-01-30T12:14:17.488Z,13.57
2023-01-30T12:16:53.492Z,12.40
2023-01-30T12:19:45.245Z,12.63
2023-01-30T12:22:12.337Z,15.07
2023-01-30T12:24:48.737Z,12.03
2023-01-30T12:27:28.023Z,12.87
2023-01-30T12:29:59.989Z,14.50
2023-01-30T12:32:28.719Z,13.13
2023-01-30T12:34:56.309Z,14.17
2023-01-30T12:37:29.096Z,12.40
2023-01-30T12:39:59.071Z,11.13
2023-01-30T12:42:47.717Z,10.27
2023-01-30T12:45:14.773Z,15.30
2023-01-30T12:47:53.882Z,9.77
2023-01-30T12:50:21.412Z,17.23
2023-01-30T12:52:48.466Z,10.07
2023-01-30T12:55:36.578Z,14.47
2023-01-30T12:58:21.516Z,26.77
2023-01-30T13:01:00.606Z,14.37
2023-01-30T13:03:41.653Z,14.83
2023-01-30T13:06:30.197Z,11.60
2023-01-30T13:09:15.036Z,14.83
2023-01-30T13:11:56.393Z,15.67
2023-01-30T13:14:50.167Z,9.17
2023-01-30T13:17:44.573Z,9.33
2023-01-30T13:20:34.595Z,12.50
2023-01-30T13:23:38.116Z,12.33
2023-01-30T13:26:08.267Z,8.30
2023-01-30T13:28:39.066Z,12.70
2023-01-30T13:31:07.805Z,10.07
2023-01-30T13:33:37.338Z,12.03
2023-01-30T13:36:11.433Z,12.77
2023-01-30T13:38:41.061Z,14.33
2023-01-30T13:41:10.523Z,9.53
2023-01-30T13:43:40.134Z,12.00
2023-01-30T13:46:10.972Z,13.60
2023-01-30T13:48:38.288Z,12.20
2023-01-30T13:51:23.925Z,20.70
2023-01-30T13:54:03.599Z,15.47
2023-01-30T13:56:49.492Z,12.07
2023-01-30T13:59:35.597Z,11.33
2023-01-30T14:02:10.159Z,15.37
2023-01-30T14:04:38.614Z,15.77
2023-01-30T14:07:23.929Z,16.43
2023-01-30T14:10:04.266Z,16.53
2023-01-30T14:12:41.749Z,19.00
2023-01-30T14:15:11.922Z,12.43
2023-01-30T14:17:39.241Z,16.70
2023-01-30T14:20:15.546Z,17.00
2023-01-30T14:22:52.736Z,17.17
2023-01-30T14:25:25.891Z,11.97
2023-01-30T14:27:54.018Z,11.97
2023-01-30T14:30:39.437Z,16.33
2023-01-30T14:33:31.992Z,13.50
2023-01-30T14:35:59.085Z,17.40
2023-01-30T14:38:26.913Z,12.60
2023-01-30T14:41:02.775Z,21.80
2023-01-30T14:43:35.907Z,12.07
2023-01-30T14:46:07.509Z,14.13
2023-01-30T14:48:36.917Z,12.93
2023-01-30T14:51:35.963Z,19.13
2023-01-30T14:54:15.198Z,10.87
2023-01-30T14:56:44.944Z,18.20
2023-01-30T14:59:18.589Z,11.57
2023-01-30T15:02:04.376Z,18.73
2023-01-30T15:04:33.159Z,10.43
2023-01-30T15:07:01.744Z,9.37
2023-01-30T15:09:30.727Z,14.80
2023-01-30T15:12:18.050Z,15.37
2023-01-30T15:15:23.557Z,15.70
2023-01-30T15:18:07.836Z,15.17
2023-01-30T15:20:45.184Z,16.97
2023-01-30T15:23:43.467Z,14.63
2023-01-30T15:26:18.376Z,14.50
2023-01-30T15:29:05.936Z,15.73
2023-01-30T15:31:33.716Z,15.80
2023-01-30T15:34:00.825Z,18.97
2023-01-30T15:36:33.285Z,21.07
2023-01-30T15:39:04.805Z,16.40
2023-01-30T15:41:33.163Z,10.37
2023-01-30T15:44:25.678Z,13.53
2023-01-30T15:47:02.046Z,12.07
2023-01-30T15:50:08.500Z,12.40
2023-01-30T15:52:40.258Z,14.97
2023-01-30T15:55:15.101Z,12.17
2023-01-30T15:57:44.318Z,13.93
2023-01-30T16:00:19.283Z,17.10
2023-01-30T16:02:46.716Z,14.03
2023-01-30T16:05:17.497Z,13.83
2023-01-30T16:07:45.347Z,14.13
2023-01-30T16:10:20.943Z,14.60
2023-01-30T16:12:49.082Z,16.07
2023-01-30T16:15:29.951Z,17.07
2023-01-30T16:18:18.232Z,13.57
2023-01-30T16:21:01.481Z,14.10
2023-01-30T16:23:41.168Z,15.00
2023-01-30T16:26:10.268Z,18.87
2023-01-30T16:28:37.428Z,15.37
2023-01-30T16:31:06.612Z,16.10
2023-01-30T16:33:37.485Z,16.03
2023-01-30T16:36:05.839Z,14.47
2023-01-30T16:38:37.214Z,15.00
2023-01-30T16:41:04.778Z,18.30
2023-01-30T16:43:33.409Z,16.33
2023-01-30T16:46:19.884Z,17.03
2023-01-30T16:48:47.070Z,16.90
2023-01-30T16:51:18.851Z,15.20
2023-01-30T16:54:04.906Z,17.57
2023-01-30T16:56:34.487Z,16.63
2023-01-30T16:59:02.137Z,14.93
2023-01-30T17:01:37.993Z,14.63
2023-01-30T17:04:07.793Z,19.93
2023-01-30T17:06:39.934Z,14.53
2023-01-30T17:09:46.837Z,23.07
2023-01-30T17:12:25.691Z,21.53
2023-01-30T17:15:13.801Z,19.67
2023-01-30T17:17:41.466Z,24.33
2023-01-30T17:20:09.054Z,18.33
2023-01-30T17:22:37.560Z,13.87
2023-01-30T17:25:06.577Z,10.40
2023-01-30T17:27:34.373Z,17.57
2023-01-30T17:30:01.059Z,16.03
2023-01-30T17:32:28.215Z,22.10
2023-01-30T17:34:55.967Z,16.67
2023-01-30T17:37:23.066Z,14.87
2023-01-30T17:39:50.168Z,18.63
2023-01-30T17:42:22.154Z,16.30
2023-01-30T17:44:49.647Z,16.90
2023-01-30T17:47:16.809Z,13.67
2023-01-30T17:49:43.527Z,16.27
2023-01-30T17:52:13.175Z,20.27
2023-01-30T17:54:39.869Z,17.20
2023-01-30T17:57:09.709Z,17.27
2023-01-30T17:59:36.847Z,15.00
2023-01-30T18:02:03.885Z,19.47
2023-01-30T18:04:30.590Z,14.80
2023-01-30T18:07:04.365Z,18.03
2023-01-30T18:09:31.890Z,15.47
2023-01-30T18:11:58.578Z,18.20
2023-01-30T18:14:25.697Z,12.87
2023-01-30T18:16:52.653Z,17.57
2023-01-30T18:19:23.865Z,15.67
2023-01-30T18:21:50.700Z,15.13
2023-01-30T18:24:18.371Z,13.03
2023-01-30T18:26:45.622Z,14.30
2023-01-30T18:29:12.895Z,20.30
2023-01-30T18:31:40.691Z,13.70
2023-01-30T18:34:09.759Z,16.63
2023-01-30T18:36:37.451Z,22.80
2023-01-30T18:39:05.389Z,12.70
2023-01-30T18:41:32.435Z,21.83
2023-01-30T18:44:04.573Z,22.47
2023-01-30T18:46:32.273Z,17.57
2023-01-30T18:48:59.392Z,21.30
2023-01-30T18:51:28.466Z,17.23
2023-01-30T18:53:55.998Z,14.53
2023-01-30T18:56:29.468Z,22.17
2023-01-30T18:58:56.687Z,19.97
2023-01-30T19:01:28.413Z,19.70
2023-01-30T19:03:59.739Z,14.83
2023-01-30T19:06:27.545Z,23.03
2023-01-30T19:08:54.445Z,19.57
2023-01-30T19:11:40.881Z,27.67
2023-01-30T19:14:08.908Z,15.77
2023-01-30T19:16:37.497Z,22.13
2023-01-30T19:19:04.998Z,22.23
2023-01-30T19:21:32.196Z,16.47
2023-01-30T19:23:59.650Z,19.00
2023-01-30T19:26:28.902Z,18.10
2023-01-30T19:28:55.651Z,13.03
2023-01-30T19:31:23.002Z,22.50
2023-01-30T19:34:00.672Z,20.90
2023-01-30T19:36:30.230Z,13.77
2023-01-30T19:38:59.607Z,14.50
2023-01-30T19:41:29.216Z,19.27
2023-01-30T19:43:57.461Z,22.07
2023-01-30T19:46:24.608Z,24.37
2023-01-30T19:48:51.823Z,23.50
2023-01-30T19:51:27.611Z,20.97
2023-01-30T19:53:56.627Z,20.00
2023-01-30T19:56:25.331Z,15.10
2023-01-30T19:58:55.043Z,29.77
2023-01-30T20:01:23.242Z,21.47
2023-01-30T20:03:50.042Z,21.87
2023-01-30T20:06:37.265Z,16.97
2023-01-30T20:09:06.989Z,26.40
2023-01-30T20:11:35.854Z,27.37
2023-01-30T20:14:04.722Z,25.77
2023-01-30T20:16:31.949Z,16.87
2023-01-30T20:19:03.885Z,22.57
2023-01-30T20:21:31.391Z,23.50
2023-01-30T20:23:58.354Z,21.87
2023-01-30T20:26:35.107Z,21.70
2023-01-30T20:29:03.802Z,21.67
2023-01-30T20:31:31.237Z,17.33
2023-01-30T20:34:01.337Z,17.77
2023-01-30T20:36:28.539Z,21.13
2023-01-30T20:38:56.541Z,18.17
2023-01-30T20:41:25.990Z,20.30
2023-01-30T20:43:56.574Z,16.23
2023-01-30T20:46:28.451Z,20.17
2023-01-30T20:48:57.149Z,14.70
2023-01-30T20:51:26.526Z,15.77
2023-01-30T20:53:56.054Z,14.53
2023-01-30T20:56:24.527Z,17.53
2023-01-30T20:58:51.676Z,23.03
2023-01-30T21:01:21.487Z,20.13
2023-01-30T21:03:52.861Z,15.77
2023-01-30T21:06:42.801Z,16.77
2023-01-30T21:09:21.178Z,18.23
2023-01-30T21:11:48.962Z,16.27
2023-01-30T21:14:16.619Z,14.93
2023-01-30T21:16:43.811Z,21.30
2023-01-30T21:19:15.819Z,13.57
2023-01-30T21:21:52.654Z,14.33
2023-01-30T21:24:25.639Z,19.40
2023-01-30T21:26:53.020Z,19.70
2023-01-30T21:29:22.800Z,16.20
2023-01-30T21:31:50.273Z,19.50
2023-01-30T21:34:17.099Z,16.10
2023-01-30T21:36:43.765Z,18.67
2023-01-30T21:39:32.344Z,17.80
2023-01-30T21:42:19.257Z,13.13
2023-01-30T21:44:47.132Z,18.60
2023-01-30T21:47:13.824Z,20.17
2023-01-30T21:49:43.899Z,15.83
2023-01-30T21:52:10.608Z,16.83
2023-01-30T21:54:37.756Z,15.97
2023-01-30T21:57:04.873Z,16.93
2023-01-30T21:59:31.969Z,27.13
2023-01-30T22:01:58.616Z,20.00
2023-01-30T22:04:25.365Z,21.53
2023-01-30T22:06:52.493Z,25.70
2023-01-30T22:09:19.187Z,21.97
2023-01-30T22:11:46.197Z,22.60
2023-01-30T22:14:14.090Z,24.60
2023-01-30T22:16:41.818Z,23.73
2023-01-30T22:19:09.615Z,22.20
2023-01-30T22:21:39.910Z,29.97
2023-01-30T22:24:08.424Z,20.70
2023-01-30T22:26:36.685Z,25.07
2023-01-30T22:29:04.892Z,19.53
2023-01-30T22:31:34.603Z,23.63
2023-01-30T22:34:03.562Z,18.07
2023-01-30T22:36:33.267Z,21.07
2023-01-30T22:39:00.021Z,21.77
2023-01-30T22:41:28.424Z,26.37
2023-01-30T22:43:57.059Z,24.63
2023-01-30T22:46:34.951Z,17.13
2023-01-30T22:49:03.206Z,21.90
2023-01-30T22:51:39.371Z,22.27
2023-01-30T22:54:09.361Z,26.53
2023-01-30T22:56:41.633Z,22.33
2023-01-30T22:59:09.410Z,21.60
2023-01-30T23:01:39.254Z,24.53
2023-01-30T23:04:20.936Z,28.30
2023-01-30T23:06:48.901Z,23.37
2023-01-30T23:09:19.693Z,22.80
2023-01-30T23:12:08.973Z,23.30
2023-01-30T23:14:36.923Z,17.43
2023-01-30T23:17:26.706Z,17.17
2023-01-30T23:19:54.482Z,20.87
2023-01-30T23:22:21.693Z,17.50
2023-01-30T23:24:48.991Z,23.60
2023-01-30T23:27:16.149Z,17.70
2023-01-30T23:29:43.129Z,16.73
2023-01-30T23:32:10.323Z,22.10
2023-01-30T23:34:37.749Z,22.93
2023-01-30T23:37:04.593Z,19.97
2023-01-30T23:39:31.325Z,20.87
2023-01-30T23:41:57.998Z,20.00
2023-01-30T23:44:25.081Z,18.03
2023-01-30T23:46:52.456Z,18.23
2023-01-30T23:49:19.559Z,20.57
2023-01-30T23:51:46.873Z,19.20
2023-01-30T23:54:14.099Z,20.73
2023-01-30T23:56:43.311Z,14.17
2023-01-30T23:59:10.948Z,20.70
